Time;durP1;ratioP1;P1;durP2;ratioP2;P2;SDS_P1;SDS_P2;PMS_P1;PMS_P2;Temp;Humidity;BMP_temperature;BMP_pressure;BME280_temperature;BME280_humidity;BME280_pressure;Samples;Min_cycle;Max_cycle;Signal;HPM_P1;HPM_P2
2023/01/04 00:00:37;;;;;;;;;;;;;;;6.10;68.24;101092.50;5125129;27;2075;-84
2023/01/04 00:03:03;;;;;;;;;;;;;;;6.27;67.39;101092.41;5128358;27;2727;-83
2023/01/04 00:05:30;;;;;;;;;;;;;;;6.14;67.74;101095.66;5125555;27;2107;-83
2023/01/04 00:07:56;;;;;;;;;;;;;;;6.18;67.73;101099.66;5126229;27;1999;-82
2023/01/04 00:10:23;;;;;;;;;;;;;;;6.11;67.97;101096.81;5124390;27;2370;-83
2023/01/04 00:12:50;;;;;;;;;;;;;;;6.18;67.72;101096.13;5126120;27;2090;-83
2023/01/04 00:15:16;;;;;;;;;;;;;;;6.28;67.58;101094.06;5121580;27;2121;-83
2023/01/04 00:17:43;;;;;;;;;;;;;;;6.29;67.19;101080.47;5121164;27;2049;-83
2023/01/04 00:20:10;;;;;;;;;;;;;;;6.22;67.70;101084.06;5124975;27;2279;-83
2023/01/04 00:22:36;;;;;;;;;;;;;;;6.25;67.58;101075.69;5126764;27;1301;-83
2023/01/04 00:25:03;;;;;;;;;;;;;;;6.21;67.78;101077.91;5127512;27;2172;-84
2023/01/04 00:27:29;;;;;;;;;;;;;;;6.21;67.38;101069.03;5124978;27;2105;-83
2023/01/04 00:29:56;;;;;;;;;;;;;;;6.18;67.55;101061.34;5140826;27;2244;-83
2023/01/04 00:32:22;;;;;;;;;;;;;;;6.19;67.59;101050.47;5125498;27;2311;-83
2023/01/04 00:34:49;;;;;;;;;;;;;;;6.19;67.91;101050.47;5123802;27;2322;-83
2023/01/04 00:37:16;;;;;;;;;;;;;;;6.11;67.73;101047.84;5119969;27;1769;-83
2023/01/04 00:39:42;;;;;;;;;;;;;;;6.29;67.44;101039.53;5125137;27;2012;-82
2023/01/04 00:42:09;;;;;;;;;;;;;;;6.14;67.84;101036.81;5125703;27;2186;-82
2023/01/04 00:44:35;;;;;;;;;;;;;;;6.10;68.02;101035.50;5123560;27;2250;-83
2023/01/04 00:47:02;;;;;;;;;;;;;;;6.31;67.44;101032.16;5122626;27;2130;-83
2023/01/04 00:49:28;;;;;;;;;;;;;;;6.10;68.21;101022.97;5124927;27;1996;-84
2023/01/04 00:51:55;;;;;;;;;;;;;;;6.24;67.75;101020.53;5124487;27;2099;-83
2023/01/04 00:54:21;;;;;;;;;;;;;;;6.34;67.18;101019.25;5124712;27;1767;-83
2023/01/04 00:56:48;;;;;;;;;;;;;;;6.21;67.61;101008.34;5123783;27;2265;-83
2023/01/04 00:59:14;;;;;;;;;;;;;;;6.23;67.60;101002.81;5121908;27;2588;-83
2023/01/04 01:01:41;;;;;;;;;;;;;;;6.22;67.46;101003.81;5123167;27;2187;-83
2023/01/04 01:04:08;;;;;;;;;;;;;;;6.21;67.46;101005.69;5125826;27;1388;-84
2023/01/04 01:06:34;;;;;;;;;;;;;;;6.23;67.42;100997.44;5126188;27;2061;-83
2023/01/04 01:09:01;;;;;;;;;;;;;;;6.19;68.18;100986.28;5121325;27;2043;-83
2023/01/04 01:11:27;;;;;;;;;;;;;;;6.30;67.31;100988.53;5121578;27;2254;-83
2023/01/04 01:13:54;;;;;;;;;;;;;;;6.25;67.70;100988.25;5124086;27;4935;-83
2023/01/04 01:16:20;;;;;;;;;;;;;;;6.35;67.42;100970.09;5123034;27;3786;-83
2023/01/04 01:18:47;;;;;;;;;;;;;;;6.28;67.56;100963.81;5120902;27;2117;-83
2023/01/04 01:21:14;;;;;;;;;;;;;;;6.21;67.83;100956.69;5124206;27;3944;-82
2023/01/04 01:23:40;;;;;;;;;;;;;;;6.22;67.56;100959.19;5125017;27;1287;-84
2023/01/04 01:26:07;;;;;;;;;;;;;;;6.26;67.56;100944.41;5123361;27;2343;-83
2023/01/04 01:28:33;;;;;;;;;;;;;;;6.28;67.41;100946.91;5124632;27;2243;-85
2023/01/04 01:31:00;;;;;;;;;;;;;;;6.26;67.59;100941.75;5122045;27;2197;-83
2023/01/04 01:33:26;;;;;;;;;;;;;;;6.14;67.97;100936.00;5120436;27;4183;-83
2023/01/04 01:35:53;;;;;;;;;;;;;;;6.25;67.62;100942.75;5120803;27;4224;-82
2023/01/04 01:38:19;;;;;;;;;;;;;;;6.22;67.69;100934.28;5142108;27;2009;-83
2023/01/04 01:40:46;;;;;;;;;;;;;;;6.29;67.48;100940.56;5124287;27;3746;-82
2023/01/04 01:43:12;;;;;;;;;;;;;;;6.24;67.58;100945.63;5119713;27;2200;-81
2023/01/04 01:45:39;;;;;;;;;;;;;;;6.21;67.84;100941.47;5122708;27;2097;-81
2023/01/04 01:48:05;;;;;;;;;;;;;;;6.31;67.48;100925.97;5123679;27;2184;-81
2023/01/04 01:50:32;;;;;;;;;;;;;;;6.22;67.77;100931.59;5122783;27;2242;-83
2023/01/04 01:52:58;;;;;;;;;;;;;;;6.23;67.55;100914.53;5120214;27;2117;-83
2023/01/04 01:55:25;;;;;;;;;;;;;;;6.26;67.79;100922.19;5122886;27;2148;-82
2023/01/04 01:57:52;;;;;;;;;;;;;;;6.19;67.82;100911.41;5121299;27;2211;-82
2023/01/04 02:00:18;;;;;;;;;;;;;;;6.24;67.53;100902.84;5115855;27;2081;-83
2023/01/04 02:02:45;;;;;;;;;;;;;;;6.21;68.03;100905.88;5121638;27;1979;-82
2023/01/04 02:05:11;;;;;;;;;;;;;;;6.14;68.11;100903.91;5121535;27;2982;-83
2023/01/04 02:07:38;;;;;;;;;;;;;;;6.11;68.19;100898.09;5123804;27;2135;-83
2023/01/04 02:10:05;;;;;;;;;;;;;;;6.13;67.95;100891.56;5118884;27;2050;-83
2023/01/04 02:12:31;;;;;;;;;;;;;;;6.18;67.84;100892.84;5157137;27;2578;-83
2023/01/04 02:14:58;;;;;;;;;;;;;;;6.14;68.03;100876.34;5121727;27;2132;-83
2023/01/04 02:17:24;;;;;;;;;;;;;;;6.14;67.87;100865.63;5122207;27;2081;-83
2023/01/04 02:19:51;;;;;;;;;;;;;;;6.14;68.11;100849.59;5124223;27;1980;-83
2023/01/04 02:22:17;;;;;;;;;;;;;;;6.06;68.19;100845.19;5121059;27;2287;-82
2023/01/04 02:24:44;;;;;;;;;;;;;;;6.04;68.49;100844.53;5122132;27;2244;-83
2023/01/04 02:27:11;;;;;;;;;;;;;;;6.03;68.25;100834.00;5122233;27;2560;-84
2023/01/04 02:29:38;;;;;;;;;;;;;;;6.11;68.16;100824.03;5123866;27;2256;-82
2023/01/04 02:32:04;;;;;;;;;;;;;;;6.23;67.73;100823.59;5122035;27;2181;-83
2023/01/04 02:34:31;;;;;;;;;;;;;;;6.05;68.09;100815.94;5119886;27;2412;-82
2023/01/04 02:36:57;;;;;;;;;;;;;;;6.16;67.83;100807.47;5122148;27;2226;-82
2023/01/04 02:39:24;;;;;;;;;;;;;;;6.13;67.97;100808.66;5123428;27;2237;-83
2023/01/04 02:41:50;;;;;;;;;;;;;;;6.09;68.15;100804.69;5123528;27;2237;-82
2023/01/04 02:47:01;;;;;;;;;;;;;;;6.13;67.84;100803.31;5120470;27;2058;-83
2023/01/04 02:52:11;;;;;;;;;;;;;;;6.11;67.89;100793.81;5122404;27;2213;-83
2023/01/04 02:54:38;;;;;;;;;;;;;;;6.06;68.20;100790.84;5122387;27;2003;-83
2023/01/04 02:57:04;;;;;;;;;;;;;;;6.13;68.10;100778.41;5124266;27;2118;-83
2023/01/04 02:59:31;;;;;;;;;;;;;;;6.15;67.91;100773.72;5122680;27;2022;-83
2023/01/04 03:07:26;;;;;;;;;;;;;;;6.15;67.79;100768.38;5123209;27;2078;-83
2023/01/04 03:09:53;;;;;;;;;;;;;;;6.02;68.33;100760.97;5120559;27;2099;-83
2023/01/04 03:12:30;;;;;;;;;;;;;;;6.09;68.00;100758.41;5120863;27;2039;-83
2023/01/04 03:14:59;;;;;;;;;;;;;;;6.16;67.89;100745.13;5121713;27;2160;-83
2023/01/04 03:17:25;;;;;;;;;;;;;;;6.00;68.32;100728.25;5121555;27;2189;-83
2023/01/04 03:19:53;;;;;;;;;;;;;;;6.04;68.32;100718.84;5121086;27;2239;-83
2023/01/04 03:36:00;;;;;;;;;;;;;;;6.16;68.13;100710.34;5114478;27;2140;-83
2023/01/04 03:49:24;;;;;;;;;;;;;;;6.09;68.13;100681.69;5150518;27;3806;-84
2023/01/04 03:51:51;;;;;;;;;;;;;;;6.11;67.89;100668.94;5120078;28;2100;-82
2023/01/04 03:54:18;;;;;;;;;;;;;;;6.00;68.62;100666.78;5122226;27;2164;-84
2023/01/04 03:56:45;;;;;;;;;;;;;;;6.12;67.90;100653.75;5120897;27;2102;-82
2023/01/04 03:59:11;;;;;;;;;;;;;;;6.06;68.41;100649.97;5121247;27;2066;-83
2023/01/04 04:01:38;;;;;;;;;;;;;;;6.12;68.20;100635.84;5119894;27;3919;-82
2023/01/04 04:09:33;;;;;;;;;;;;;;;6.08;68.20;100621.19;5121496;27;2125;-82
2023/01/04 04:11:59;;;;;;;;;;;;;;;6.06;68.46;100611.69;5130154;27;2004;-83
2023/01/04 04:14:26;;;;;;;;;;;;;;;6.11;68.00;100603.94;5120205;27;2185;-82
2023/01/04 04:16:53;;;;;;;;;;;;;;;6.10;68.26;100595.09;5119274;27;2156;-82
2023/01/04 04:19:20;;;;;;;;;;;;;;;6.17;67.87;100592.47;5123506;27;2409;-83
2023/01/04 04:21:47;;;;;;;;;;;;;;;6.26;67.64;100587.84;5123384;28;3586;-83
2023/01/04 04:24:14;;;;;;;;;;;;;;;6.23;67.70;100588.22;5120158;27;2179;-83
2023/01/04 04:26:40;;;;;;;;;;;;;;;6.22;67.86;100579.38;5120712;27;2200;-83
2023/01/04 04:29:07;;;;;;;;;;;;;;;6.00;68.51;100573.19;5118921;27;2362;-82
2023/01/04 04:31:34;;;;;;;;;;;;;;;6.07;67.95;100568.72;5121671;27;2078;-83
2023/01/04 04:34:00;;;;;;;;;;;;;;;6.28;67.45;100564.41;5125497;27;2752;-82
2023/01/04 04:36:27;;;;;;;;;;;;;;;6.07;68.21;100550.00;5119549;27;2305;-82
2023/01/04 04:38:53;;;;;;;;;;;;;;;6.23;67.79;100546.25;5123138;27;2047;-83
2023/01/04 04:41:38;;;;;;;;;;;;;;;6.09;68.16;100545.31;5126151;27;2173;-81
2023/01/04 04:44:05;;;;;;;;;;;;;;;6.17;67.73;100538.16;5122569;27;2084;-83
2023/01/04 04:46:32;;;;;;;;;;;;;;;6.19;67.71;100526.25;5122788;27;2138;-84
2023/01/04 04:48:58;;;;;;;;;;;;;;;6.22;67.73;100530.41;5125334;27;2200;-82
2023/01/04 04:51:25;;;;;;;;;;;;;;;6.21;67.57;100518.88;5123840;27;2157;-83
2023/01/04 04:53:51;;;;;;;;;;;;;;;6.26;67.59;100515.63;5124128;27;2249;-84
2023/01/04 04:56:18;;;;;;;;;;;;;;;6.22;67.56;100506.34;5124261;27;2231;-83
2023/01/04 04:58:44;;;;;;;;;;;;;;;6.19;67.77;100496.03;5125445;27;1975;-82
2023/01/04 05:01:11;;;;;;;;;;;;;;;6.29;67.73;100496.50;5121677;27;2314;-85
2023/01/04 05:03:37;;;;;;;;;;;;;;;6.30;67.44;100492.84;5125696;27;1590;-82
2023/01/04 05:06:04;;;;;;;;;;;;;;;6.23;67.78;100494.59;5125429;27;2200;-81
2023/01/04 05:08:30;;;;;;;;;;;;;;;6.19;67.82;100478.13;5125166;27;1189;-81
2023/01/04 05:10:57;;;;;;;;;;;;;;;6.34;67.47;100480.72;5121772;27;2317;-82
2023/01/04 05:13:22;;;;;;;;;;;;;;;6.18;67.74;100470.28;5122687;27;2137;-81
2023/01/04 05:15:49;;;;;;;;;;;;;;;6.09;68.14;100466.94;5122748;27;2149;-83
2023/01/04 05:18:16;;;;;;;;;;;;;;;6.22;67.57;100460.88;5123651;27;2211;-83
2023/01/04 05:20:42;;;;;;;;;;;;;;;6.28;67.34;100455.56;5123868;27;2213;-82
2023/01/04 05:23:09;;;;;;;;;;;;;;;6.21;67.62;100449.34;5124961;27;2047;-84
2023/01/04 05:25:35;;;;;;;;;;;;;;;6.20;67.75;100439.66;5120028;27;2057;-82
2023/01/04 05:28:02;;;;;;;;;;;;;;;6.13;67.99;100441.47;5117504;27;2094;-82
2023/01/04 05:33:13;;;;;;;;;;;;;;;2.00;66.07;100425.88;5123200;27;2012;-86
2023/01/04 05:35:40;;;;;;;;;;;;;;;4.46;64.99;100430.69;5121011;27;2236;-86
2023/01/04 05:38:06;;;;;;;;;;;;;;;5.01;64.15;100415.22;5119879;27;2553;-86
2023/01/04 05:40:33;;;;;;;;;;;;;;;5.55;63.13;100417.44;5122063;27;2466;-86
2023/01/04 05:43:00;;;;;;;;;;;;;;;5.89;62.93;100410.59;5122200;27;2846;-85
2023/01/04 05:45:27;;;;;;;;;;;;;;;5.92;63.56;100396.84;5121262;27;2166;-86
2023/01/04 05:47:53;;;;;;;;;;;;;;;6.03;63.78;100398.16;5105399;27;2075;-85
2023/01/04 05:50:20;;;;;;;;;;;;;;;5.87;64.91;100392.06;5123420;27;2148;-86
2023/01/04 05:52:47;;;;;;;;;;;;;;;5.90;64.88;100385.50;5124065;27;1987;-86
2023/01/04 05:55:13;;;;;;;;;;;;;;;5.95;65.04;100376.94;5106485;27;2077;-86
2023/01/04 05:57:40;;;;;;;;;;;;;;;6.00;65.04;100386.03;5121216;27;2074;-85
2023/01/04 06:00:06;;;;;;;;;;;;;;;6.02;65.08;100370.63;5123251;27;2081;-85
2023/01/04 06:02:33;;;;;;;;;;;;;;;5.90;65.74;100362.25;5122601;27;2098;-86
2023/01/04 06:05:00;;;;;;;;;;;;;;;6.06;65.29;100349.66;5122375;27;2094;-85
2023/01/04 06:07:26;;;;;;;;;;;;;;;6.00;65.71;100339.75;5123039;27;2224;-85
2023/01/04 06:09:53;;;;;;;;;;;;;;;5.96;66.03;100339.31;5137374;27;2080;-86
2023/01/04 06:12:19;;;;;;;;;;;;;;;5.90;66.05;100322.16;5122387;27;2066;-86
2023/01/04 06:14:46;;;;;;;;;;;;;;;6.04;66.00;100314.28;5120498;27;4877;-86
2023/01/04 06:17:13;;;;;;;;;;;;;;;6.02;65.96;100310.97;5114088;27;4032;-87
2023/01/04 06:19:39;;;;;;;;;;;;;;;5.98;66.37;100299.03;5122510;27;4009;-86
2023/01/04 06:22:06;;;;;;;;;;;;;;;5.99;66.43;100296.16;5123724;27;2390;-86
2023/01/04 06:24:32;;;;;;;;;;;;;;;6.05;66.02;100282.00;5123727;27;2083;-86
2023/01/04 06:26:59;;;;;;;;;;;;;;;5.94;66.80;100284.38;5122803;27;1989;-87
2023/01/04 06:29:26;;;;;;;;;;;;;;;6.02;66.41;100282.38;5120047;27;1984;-84
2023/01/04 06:31:52;;;;;;;;;;;;;;;5.87;66.83;100269.09;5117385;27;3878;-86
2023/01/04 06:34:19;;;;;;;;;;;;;;;5.95;66.91;100270.03;5115711;27;4333;-86
2023/01/04 06:36:46;;;;;;;;;;;;;;;6.09;66.58;100266.41;5114416;27;2291;-86
2023/01/04 06:39:15;;;;;;;;;;;;;;;5.97;66.82;100257.25;5114867;27;2352;-85
2023/01/04 06:41:41;;;;;;;;;;;;;;;5.95;67.08;100259.31;5120849;27;2240;-86
2023/01/04 06:44:08;;;;;;;;;;;;;;;6.01;66.81;100253.19;5117361;27;2025;-86
2023/01/04 06:46:34;;;;;;;;;;;;;;;5.94;66.90;100247.78;5116773;27;1984;-87
2023/01/04 06:49:01;;;;;;;;;;;;;;;6.05;66.88;100233.88;5116861;27;1956;-86
2023/01/04 06:51:27;;;;;;;;;;;;;;;6.02;66.84;100225.41;5117883;27;2517;-85
2023/01/04 06:53:54;;;;;;;;;;;;;;;5.99;66.86;100212.44;5115532;27;3043;-85
2023/01/04 06:56:21;;;;;;;;;;;;;;;6.02;67.23;100198.69;5099687;27;2210;-85
2023/01/04 06:58:47;;;;;;;;;;;;;;;6.01;66.85;100195.19;5114774;27;2183;-85
2023/01/04 07:01:14;;;;;;;;;;;;;;;6.02;66.83;100188.00;5117667;27;2123;-85
2023/01/04 07:03:41;;;;;;;;;;;;;;;5.92;67.18;100199.03;5113922;27;2304;-84
2023/01/04 07:06:09;;;;;;;;;;;;;;;5.98;67.05;100182.22;5115192;27;2212;-86
2023/01/04 07:08:35;;;;;;;;;;;;;;;5.95;67.19;100171.09;5117249;27;2245;-86
2023/01/04 07:11:02;;;;;;;;;;;;;;;5.87;67.56;100174.72;5116365;27;1999;-86
2023/01/04 07:13:28;;;;;;;;;;;;;;;5.89;67.50;100170.84;5117782;27;3674;-86
2023/01/04 07:15:55;;;;;;;;;;;;;;;5.95;67.22;100166.59;5115537;27;3746;-86
2023/01/04 07:18:22;;;;;;;;;;;;;;;5.89;67.59;100159.34;5115462;27;1942;-86
2023/01/04 07:20:48;;;;;;;;;;;;;;;5.86;67.33;100149.84;5111902;27;3762;-86
2023/01/04 07:23:15;;;;;;;;;;;;;;;5.88;67.35;100150.50;5116095;27;2059;-86
2023/01/04 07:25:41;;;;;;;;;;;;;;;5.93;67.42;100147.25;5114929;27;1922;-86
2023/01/04 07:28:08;;;;;;;;;;;;;;;5.87;67.54;100143.47;5118924;27;2234;-86
2023/01/04 07:30:34;;;;;;;;;;;;;;;5.89;67.48;100137.94;5132876;27;2228;-84
2023/01/04 07:33:01;;;;;;;;;;;;;;;5.86;67.62;100135.69;5118397;27;1896;-81
2023/01/04 07:35:27;;;;;;;;;;;;;;;5.94;67.56;100129.34;5118278;27;2118;-79
2023/01/04 07:37:54;;;;;;;;;;;;;;;5.90;66.96;100115.53;5116932;27;1976;-81
2023/01/04 07:40:20;;;;;;;;;;;;;;;5.95;67.69;100113.13;5145018;27;2124;-83
2023/01/04 07:42:47;;;;;;;;;;;;;;;5.88;67.58;100113.06;5117017;27;2115;-82
2023/01/04 07:45:13;;;;;;;;;;;;;;;5.85;67.71;100099.25;5116307;27;2236;-84
2023/01/04 07:47:40;;;;;;;;;;;;;;;5.92;67.41;100092.94;5113501;27;2282;-82
2023/01/04 07:50:07;;;;;;;;;;;;;;;5.93;67.51;100096.44;5149323;27;2286;-81
2023/01/04 07:52:33;;;;;;;;;;;;;;;5.98;67.36;100086.00;5111830;27;1806;-82
2023/01/04 07:55:00;;;;;;;;;;;;;;;5.96;67.07;100080.00;5114249;27;1945;-81
2023/01/04 07:57:26;;;;;;;;;;;;;;;5.89;67.66;100071.94;5115217;27;2075;-80
2023/01/04 07:59:53;;;;;;;;;;;;;;;5.80;67.78;100059.78;5108440;27;2144;-81
2023/01/04 08:02:19;;;;;;;;;;;;;;;5.85;67.84;100056.50;5119815;27;1952;-80
2023/01/04 08:04:46;;;;;;;;;;;;;;;5.81;67.88;100063.28;5114761;27;1911;-82
2023/01/04 08:07:13;;;;;;;;;;;;;;;5.83;67.68;100051.38;5138281;27;2248;-82
2023/01/04 08:09:39;;;;;;;;;;;;;;;5.83;67.95;100051.38;5123672;27;2035;-80
2023/01/04 08:12:06;;;;;;;;;;;;;;;5.96;67.17;100053.28;5119656;27;2362;-81
2023/01/04 08:14:32;;;;;;;;;;;;;;;5.75;68.29;100045.38;5120376;27;2252;-81
2023/01/04 08:16:59;;;;;;;;;;;;;;;5.73;68.26;100034.06;5121681;27;2283;-81
2023/01/04 08:19:26;;;;;;;;;;;;;;;5.86;67.54;100024.25;5119240;27;2371;-80
2023/01/04 08:21:52;;;;;;;;;;;;;;;5.74;68.21;100025.84;5120914;27;2019;-82
2023/01/04 08:24:19;;;;;;;;;;;;;;;5.71;68.04;100018.25;5116618;27;1908;-78
2023/01/04 08:26:45;;;;;;;;;;;;;;;5.73;68.27;100013.50;5118382;27;1941;-81
2023/01/04 08:29:12;;;;;;;;;;;;;;;5.82;68.16;100012.28;5119169;27;2153;-81
2023/01/04 08:31:38;;;;;;;;;;;;;;;5.76;67.91;100007.75;5115900;27;1948;-81
2023/01/04 08:34:05;;;;;;;;;;;;;;;5.82;68.09;100004.28;5123063;27;2305;-81
2023/01/04 08:36:31;;;;;;;;;;;;;;;5.84;67.73;99993.38;5120778;27;2261;-81
2023/01/04 08:38:58;;;;;;;;;;;;;;;5.72;68.11;99987.00;5121278;27;1908;-80
2023/01/04 08:41:25;;;;;;;;;;;;;;;5.81;67.98;99983.94;5119575;27;2288;-80
2023/01/04 08:43:51;;;;;;;;;;;;;;;5.84;67.67;99975.50;5127792;27;1997;-80
2023/01/04 08:46:18;;;;;;;;;;;;;;;5.80;67.88;99968.09;5119320;27;2130;-80
2023/01/04 08:48:44;;;;;;;;;;;;;;;5.79;67.96;99953.09;5116415;27;2293;-80
2023/01/04 08:51:11;;;;;;;;;;;;;;;5.79;67.97;99950.41;5118930;27;2353;-81
2023/01/04 08:53:37;;;;;;;;;;;;;;;5.80;67.87;99941.38;5116948;27;2105;-81
2023/01/04 08:56:05;;;;;;;;;;;;;;;5.86;67.71;99929.88;5115350;27;1952;-81
2023/01/04 08:58:32;;;;;;;;;;;;;;;5.95;67.42;99923.34;5119576;27;1782;-83
2023/01/04 09:00:58;;;;;;;;;;;;;;;5.80;67.61;99922.69;5118363;27;2396;-84
2023/01/04 09:03:25;;;;;;;;;;;;;;;5.76;67.72;99916.06;5116001;27;2478;-85
2023/01/04 09:05:51;;;;;;;;;;;;;;;5.80;67.54;99914.66;5126783;27;3982;-86
2023/01/04 09:08:18;;;;;;;;;;;;;;;5.82;67.35;99908.06;5111548;27;3451;-87
2023/01/04 09:10:44;;;;;;;;;;;;;;;5.76;67.59;99910.72;5114275;27;2295;-83
2023/01/04 09:13:11;;;;;;;;;;;;;;;5.75;67.78;99907.25;5113983;27;2128;-78
2023/01/04 09:15:38;;;;;;;;;;;;;;;5.74;67.79;99897.59;5109693;27;2375;-85
2023/01/04 09:18:06;;;;;;;;;;;;;;;5.78;67.82;99892.66;5111187;27;2334;-85
2023/01/04 09:20:34;;;;;;;;;;;;;;;5.78;67.77;99895.31;5114972;27;2253;-82
2023/01/04 09:23:00;;;;;;;;;;;;;;;5.85;67.61;99882.78;5110498;27;2969;-85
2023/01/04 09:25:27;;;;;;;;;;;;;;;5.83;67.48;99880.34;5122188;27;2347;-87
2023/01/04 09:27:54;;;;;;;;;;;;;;;5.79;67.35;99873.72;5114278;27;2314;-87
2023/01/04 09:30:21;;;;;;;;;;;;;;;5.75;67.73;99882.38;5109749;27;2070;-88
2023/01/04 09:32:47;;;;;;;;;;;;;;;5.67;68.02;99878.84;5112432;27;2281;-83
2023/01/04 09:35:14;;;;;;;;;;;;;;;5.74;67.88;99868.19;5113846;27;2373;-85
2023/01/04 09:37:40;;;;;;;;;;;;;;;5.77;67.68;99865.13;5108446;27;2282;-86
2023/01/04 09:40:07;;;;;;;;;;;;;;;5.63;68.26;99877.63;5108970;27;2286;-85
2023/01/04 09:42:33;;;;;;;;;;;;;;;5.66;68.13;99871.06;5110762;27;2185;-85
2023/01/04 09:45:00;;;;;;;;;;;;;;;5.74;68.06;99878.06;5111457;27;2272;-86
2023/01/04 09:47:28;;;;;;;;;;;;;;;5.79;67.88;99868.38;5111800;27;2051;-86
2023/01/04 09:49:55;;;;;;;;;;;;;;;5.76;67.89;99855.44;5107476;27;2196;-86
2023/01/04 09:52:21;;;;;;;;;;;;;;;5.66;68.38;99858.53;5116342;27;2383;-86
2023/01/04 09:54:48;;;;;;;;;;;;;;;5.76;67.97;99855.44;5116525;27;2455;-86
2023/01/04 09:57:16;;;;;;;;;;;;;;;5.67;68.38;99844.13;5111813;27;2046;-85
2023/01/04 09:59:43;;;;;;;;;;;;;;;5.72;68.19;99840.84;5112678;27;2417;-86
2023/01/04 10:02:10;;;;;;;;;;;;;;;5.66;68.41;99837.16;5113770;27;2161;-85
2023/01/04 10:04:37;;;;;;;;;;;;;;;5.74;67.96;99819.28;5114358;27;2247;-86
2023/01/04 10:07:04;;;;;;;;;;;;;;;5.71;68.11;99815.16;5110502;27;2341;-85
2023/01/04 10:09:30;;;;;;;;;;;;;;;5.73;67.95;99805.06;5117880;27;2393;-85
2023/01/04 10:11:57;;;;;;;;;;;;;;;5.76;68.01;99798.50;5112374;27;2501;-84
2023/01/04 10:14:23;;;;;;;;;;;;;;;5.69;68.22;99788.66;5109508;27;3917;-85
2023/01/04 10:16:50;;;;;;;;;;;;;;;5.77;68.10;99787.63;5117794;27;2307;-85
2023/01/04 10:19:17;;;;;;;;;;;;;;;5.72;68.12;99783.94;5118989;27;4017;-86
2023/01/04 10:21:44;;;;;;;;;;;;;;;5.72;68.03;99794.63;5118526;27;2125;-85
2023/01/04 10:24:11;;;;;;;;;;;;;;;5.78;67.97;99780.44;5117532;27;1945;-85
2023/01/04 10:26:37;;;;;;;;;;;;;;;5.81;67.71;99767.47;5114847;27;2281;-84
2023/01/04 10:29:04;;;;;;;;;;;;;;;5.71;68.13;99764.41;5115406;27;2027;-83
2023/01/04 10:31:30;;;;;;;;;;;;;;;5.77;67.77;99766.25;5122062;27;3993;-84
2023/01/04 10:33:57;;;;;;;;;;;;;;;5.70;67.50;99763.56;5115803;27;2304;-82
2023/01/04 10:36:23;;;;;;;;;;;;;;;5.63;68.22;99757.41;5123405;27;1938;-82
2023/01/04 10:38:50;;;;;;;;;;;;;;;5.68;68.07;99757.63;5116237;27;1866;-81
2023/01/04 10:41:17;;;;;;;;;;;;;;;5.66;68.14;99748.16;5114849;27;2185;-82
2023/01/04 10:43:43;;;;;;;;;;;;;;;5.65;68.08;99738.53;5117424;27;2214;-83
2023/01/04 10:46:10;;;;;;;;;;;;;;;5.67;68.05;99725.75;5116007;27;1771;-82
2023/01/04 10:48:37;;;;;;;;;;;;;;;5.77;67.74;99726.16;5116311;27;1910;-82
2023/01/04 10:51:03;;;;;;;;;;;;;;;5.64;67.62;99715.47;5120129;27;2104;-82
2023/01/04 10:53:30;;;;;;;;;;;;;;;5.62;68.06;99723.72;5121195;27;2986;-82
2023/01/04 10:55:57;;;;;;;;;;;;;;;5.70;67.80;99720.00;5116042;27;2264;-81
2023/01/04 10:58:24;;;;;;;;;;;;;;;5.70;67.87;99706.63;5124924;22;2406;-79
2023/01/04 11:00:51;;;;;;;;;;;;;;;5.68;67.92;99716.72;5073122;28;2237;-79
2023/01/04 11:03:19;;;;;;;;;;;;;;;5.64;68.02;99710.97;5078164;28;2097;-79
2023/01/04 11:05:46;;;;;;;;;;;;;;;5.65;67.69;99704.59;5078795;28;1979;-79
2023/01/04 11:08:13;;;;;;;;;;;;;;;5.62;67.83;99713.03;5078635;28;2195;-79
2023/01/04 11:10:41;;;;;;;;;;;;;;;5.64;67.73;99713.63;5080236;28;2116;-79
2023/01/04 11:13:08;;;;;;;;;;;;;;;5.70;67.03;99707.44;5079395;28;1859;-79
2023/01/04 11:15:35;;;;;;;;;;;;;;;5.64;67.59;99705.63;5079656;28;2054;-79
2023/01/04 11:18:01;;;;;;;;;;;;;;;5.69;67.69;99705.81;5078302;28;1842;-78
2023/01/04 11:20:28;;;;;;;;;;;;;;;5.69;67.57;99697.00;5078092;28;2309;-79
2023/01/04 11:22:55;;;;;;;;;;;;;;;5.70;67.69;99685.25;5079082;28;1931;-79
2023/01/04 11:25:22;;;;;;;;;;;;;;;5.73;67.76;99692.84;5075202;28;2541;-79
2023/01/04 11:27:50;;;;;;;;;;;;;;;5.76;67.61;99689.75;5076405;28;2084;-79
2023/01/04 11:30:17;;;;;;;;;;;;;;;5.78;67.40;99682.38;5079948;28;1963;-78
2023/01/04 11:32:45;;;;;;;;;;;;;;;5.75;67.57;99679.31;5076957;28;1931;-79
2023/01/04 11:35:13;;;;;;;;;;;;;;;5.72;67.84;99682.41;5074527;28;3978;-78
2023/01/04 11:37:41;;;;;;;;;;;;;;;5.60;68.04;99674.19;5077648;28;2857;-79
2023/01/04 11:40:08;;;;;;;;;;;;;;;5.69;68.03;99662.25;5079491;28;2969;-78
2023/01/04 11:42:35;;;;;;;;;;;;;;;5.74;67.71;99657.13;5077313;28;1884;-78
2023/01/04 11:45:02;;;;;;;;;;;;;;;5.73;67.60;99658.13;5078165;28;2031;-78
2023/01/04 11:47:29;;;;;;;;;;;;;;;5.67;67.94;99653.63;5076387;28;2061;-78
2023/01/04 11:49:56;;;;;;;;;;;;;;;5.65;68.00;99653.03;5079688;28;2051;-79
2023/01/04 11:52:23;;;;;;;;;;;;;;;5.69;67.83;99648.91;5077708;28;2769;-79
2023/01/04 11:54:49;;;;;;;;;;;;;;;5.73;67.79;99652.78;5078938;28;2011;-78
2023/01/04 11:57:16;;;;;;;;;;;;;;;5.74;67.73;99638.41;5079862;28;1947;-78
2023/01/04 11:59:43;;;;;;;;;;;;;;;5.73;67.76;99636.75;5076412;28;2339;-78
2023/01/04 12:02:13;;;;;;;;;;;;;;;5.79;67.62;99633.22;5078893;28;1884;-78
2023/01/04 12:04:40;;;;;;;;;;;;;;;5.74;68.02;99632.25;5074243;28;2585;-78
2023/01/04 12:07:07;;;;;;;;;;;;;;;5.80;67.52;99637.56;5079262;28;1967;-78
2023/01/04 12:09:34;;;;;;;;;;;;;;;5.73;67.65;99630.59;5077109;28;2055;-78
2023/01/04 12:12:00;;;;;;;;;;;;;;;5.82;67.68;99634.66;5077208;28;1980;-78
2023/01/04 12:14:27;;;;;;;;;;;;;;;5.77;67.67;99627.31;5075872;28;2178;-78
2023/01/04 12:16:53;;;;;;;;;;;;;;;5.73;67.90;99619.91;5081866;28;2031;-78
2023/01/04 12:19:21;;;;;;;;;;;;;;;5.81;67.82;99630.38;5081033;28;1567;-78
2023/01/04 12:21:48;;;;;;;;;;;;;;;5.84;67.55;99616.59;5079246;28;1939;-78
2023/01/04 12:24:15;;;;;;;;;;;;;;;5.73;68.02;99622.56;5076555;28;2557;-78
2023/01/04 12:26:42;;;;;;;;;;;;;;;5.70;68.20;99618.47;5079043;28;1975;-78
2023/01/04 12:29:09;;;;;;;;;;;;;;;5.72;68.26;99619.09;5079875;28;1909;-78
2023/01/04 12:31:35;;;;;;;;;;;;;;;5.34;67.94;99552.22;5078365;28;2113;-77
2023/01/04 12:34:02;;;;;;;;;;;;;;;5.72;68.04;99619.09;5078803;28;1977;-78
2023/01/04 12:36:29;;;;;;;;;;;;;;;5.64;68.30;99608.63;5070334;28;4255;-78
2023/01/04 12:38:55;;;;;;;;;;;;;;;5.75;67.91;99602.63;5065108;28;3510;-78
2023/01/04 12:41:22;;;;;;;;;;;;;;;5.23;68.04;99516.31;5067238;28;2208;-78
2023/01/04 12:43:49;;;;;;;;;;;;;;;5.73;67.91;99579.81;5075770;28;2184;-78
2023/01/04 12:49:06;;;;;;;;;;;;;;;5.70;68.09;99563.19;5071363;28;2236;-78
2023/01/04 12:51:33;;;;;;;;;;;;;;;5.70;68.08;99557.84;5077518;28;2370;-78
2023/01/04 12:54:01;;;;;;;;;;;;;;;5.79;67.44;99546.91;5077323;28;2258;-78
2023/01/04 12:56:28;;;;;;;;;;;;;;;5.78;67.77;99550.63;5080097;28;1983;-78
2023/01/04 12:58:55;;;;;;;;;;;;;;;5.77;67.69;99540.97;5080430;28;2259;-78
2023/01/04 13:01:23;;;;;;;;;;;;;;;5.70;68.04;99541.00;5080357;28;1971;-78
2023/01/04 13:03:50;;;;;;;;;;;;;;;5.72;67.95;99527.44;5078777;28;1959;-78
2023/01/04 13:06:17;;;;;;;;;;;;;;;5.80;67.81;99527.19;5079980;28;1956;-78
2023/01/04 13:08:44;;;;;;;;;;;;;;;5.75;67.76;99530.50;5095358;27;2220;-78
2023/01/04 13:11:12;;;;;;;;;;;;;;;5.75;67.83;99529.69;5079107;28;1890;-78
2023/01/04 13:13:38;;;;;;;;;;;;;;;5.69;67.72;99521.47;5095179;27;1867;-78
2023/01/04 13:16:05;;;;;;;;;;;;;;;5.62;68.11;99511.88;5080886;28;2297;-78
2023/01/04 13:18:33;;;;;;;;;;;;;;;5.63;68.29;99518.84;5081901;28;2030;-78
2023/01/04 13:21:01;;;;;;;;;;;;;;;5.72;67.78;99511.41;5080014;28;1964;-78
2023/01/04 13:23:28;;;;;;;;;;;;;;;5.73;67.56;99502.34;5080806;28;1819;-78
2023/01/04 13:25:54;;;;;;;;;;;;;;;5.73;67.64;99511.16;5080530;28;2058;-78
2023/01/04 13:28:22;;;;;;;;;;;;;;;5.63;67.94;99492.94;5077533;28;2214;-78
2023/01/04 13:30:49;;;;;;;;;;;;;;;5.71;67.95;99491.88;5079818;28;1837;-78
2023/01/04 13:33:16;;;;;;;;;;;;;;;5.60;68.13;99481.88;5080936;28;1836;-78
2023/01/04 13:35:45;;;;;;;;;;;;;;;5.65;68.20;99479.38;5078241;28;1838;-78
2023/01/04 13:38:12;;;;;;;;;;;;;;;5.60;68.08;99474.66;5079713;28;2238;-78
2023/01/04 13:40:39;;;;;;;;;;;;;;;5.69;67.73;99472.56;5079874;28;2264;-78
2023/01/04 13:43:06;;;;;;;;;;;;;;;5.65;67.81;99460.69;5077609;28;1874;-78